Time;durP1;ratioP1;P1;durP2;ratioP2;P2;SDS_P1;SDS_P2;PMS_P1;PMS_P2;Temp;Humidity;BMP_temperature;BMP_pressure;BME280_temperature;BME280_humidity;BME280_pressure;Samples;Min_cycle;Max_cycle;Signal;HPM_P1;HPM_P2
2022/10/17 00:02:02;;;;;;;5.70;2.38;;;21.60;54.00;;;;;;6100038;29;20052;-80
2022/10/17 00:05:03;;;;;;;5.80;2.72;;;21.60;54.10;;;;;;6103926;29;20044;-80
2022/10/17 00:08:04;;;;;;;7.55;2.30;;;21.50;54.10;;;;;;6102028;29;20042;-80
2022/10/17 00:11:11;;;;;;;5.45;1.90;;;21.50;54.10;;;;;;6102530;29;20413;-80
2022/10/17 00:14:12;;;;;;;2.40;1.70;;;21.50;53.90;;;;;;6101223;29;20055;-80
2022/10/17 00:17:14;;;;;;;2.45;1.48;;;21.50;53.80;;;;;;6101397;29;20040;-80
2022/10/17 00:20:16;;;;;;;4.15;1.40;;;21.40;53.60;;;;;;6103414;29;20032;-80
2022/10/17 00:23:17;;;;;;;4.00;1.80;;;21.40;53.40;;;;;;6093025;29;20082;-80
2022/10/17 00:26:19;;;;;;;5.47;1.42;;;21.30;53.30;;;;;;6115870;29;20044;-80
2022/10/17 00:29:20;;;;;;;6.40;1.70;;;21.30;53.10;;;;;;6101281;29;20104;-80
2022/10/17 00:32:22;;;;;;;3.15;1.75;;;21.30;53.00;;;;;;6100818;29;20055;-79
2022/10/17 00:35:22;;;;;;;3.10;1.88;;;21.30;53.00;;;;;;6101254;29;20040;-80
2022/10/17 00:38:24;;;;;;;2.17;1.67;;;21.30;52.90;;;;;;6099366;29;20036;-81
2022/10/17 00:41:29;;;;;;;5.47;1.45;;;21.30;52.80;;;;;;6101731;29;20378;-81
2022/10/17 00:44:29;;;;;;;4.10;1.38;;;21.30;52.80;;;;;;6103512;29;20035;-80
2022/10/17 00:47:32;;;;;;;1.58;1.25;;;21.20;52.70;;;;;;6102851;29;20469;-80
2022/10/17 00:50:35;;;;;;;3.85;1.92;;;21.20;52.70;;;;;;6102339;29;20059;-80
2022/10/17 00:53:38;;;;;;;3.05;1.67;;;21.20;52.70;;;;;;6102298;29;20127;-80
2022/10/17 00:56:40;;;;;;;4.05;1.95;;;21.10;52.70;;;;;;6103399;29;20036;-79
2022/10/17 00:59:44;;;;;;;6.18;1.95;;;21.10;52.70;;;;;;6103605;29;20036;-80
2022/10/17 01:02:48;;;;;;;3.67;1.80;;;21.10;52.90;;;;;;6106165;29;20108;-80
2022/10/17 01:05:51;;;;;;;2.83;2.00;;;21.10;52.90;;;;;;6105445;29;20047;-80
2022/10/17 01:08:52;;;;;;;3.10;1.65;;;21.00;52.90;;;;;;6108718;29;20039;-80
2022/10/17 01:12:04;;;;;;;7.18;2.20;;;21.00;53.00;;;;;;6111424;29;20071;-80
2022/10/17 01:15:16;;;;;;;3.80;1.70;;;21.00;53.30;;;;;;6101618;29;20075;-81
2022/10/17 01:18:37;;;;;;;9.10;2.13;;;20.90;53.40;;;;;;6105145;29;20115;-80
2022/10/17 01:22:01;;;;;;;3.13;1.58;;;20.90;53.60;;;;;;6101690;29;20052;-81
2022/10/17 01:25:21;;;;;;;1.67;1.50;;;20.90;53.60;;;;;;6111072;29;20378;-79
2022/10/17 01:28:42;;;;;;;6.88;1.48;;;20.80;53.50;;;;;;6103735;29;20032;-79
2022/10/17 01:31:55;;;;;;;4.13;2.03;;;20.80;53.70;;;;;;6090073;29;20055;-79
2022/10/17 01:35:52;;;;;;;5.97;1.40;;;20.80;53.80;;;;;;6102180;29;20044;-80
2022/10/17 01:39:12;;;;;;;6.97;1.73;;;20.70;53.90;;;;;;5997560;29;20085;-79
2022/10/17 01:42:22;;;;;;;3.80;1.85;;;20.70;53.90;;;;;;5998267;29;20037;-79
2022/10/17 01:45:37;;;;;;;7.07;2.13;;;20.70;54.30;;;;;;6024015;29;20053;-79
2022/10/17 01:48:43;;;;;;;10.90;2.65;;;20.60;54.60;;;;;;6027937;29;20049;-79
2022/10/17 01:51:46;;;;;;;9.82;2.03;;;20.60;54.80;;;;;;6016382;29;20144;-79
2022/10/17 01:54:58;;;;;;;4.05;1.80;;;20.60;55.00;;;;;;5998364;29;20042;-79
2022/10/17 01:58:23;;;;;;;3.58;1.88;;;20.60;55.30;;;;;;6021699;29;20045;-79
2022/10/17 02:01:27;;;;;;;6.22;2.50;;;20.60;55.70;;;;;;6016019;29;20377;-79
2022/10/17 02:04:28;;;;;;;6.38;2.50;;;20.60;55.70;;;;;;6016426;29;20430;-79
2022/10/17 02:07:29;;;;;;;8.70;2.58;;;20.50;55.80;;;;;;6033095;29;20048;-80
2022/10/17 02:10:51;;;;;;;5.47;2.70;;;20.50;55.80;;;;;;6031695;29;20041;-79
2022/10/17 02:13:58;;;;;;;4.05;1.80;;;20.50;56.10;;;;;;6091461;29;20131;-79
2022/10/17 02:17:08;;;;;;;4.95;2.03;;;20.50;56.30;;;;;;6101350;29;20055;-79
2022/10/17 02:20:32;;;;;;;3.83;2.00;;;20.50;56.30;;;;;;6091139;29;20044;-79
2022/10/17 02:24:02;;;;;;;7.30;2.10;;;20.40;56.20;;;;;;6099532;29;20170;-79
2022/10/17 02:27:19;;;;;;;3.92;1.83;;;20.50;56.20;;;;;;6072790;29;20044;-80
2022/10/17 02:30:46;;;;;;;4.53;2.10;;;20.40;56.10;;;;;;6061534;29;20426;-79
2022/10/17 02:33:55;;;;;;;4.00;1.83;;;20.40;55.90;;;;;;6072592;29;20188;-79
2022/10/17 02:37:02;;;;;;;3.28;1.50;;;20.40;55.80;;;;;;6060686;29;20051;-78
2022/10/17 02:40:07;;;;;;;2.92;1.48;;;20.30;55.70;;;;;;6060878;29;20104;-79
2022/10/17 02:43:13;;;;;;;3.60;1.75;;;20.30;55.60;;;;;;6059563;29;20143;-79
2022/10/17 02:46:20;;;;;;;9.60;1.95;;;20.30;55.70;;;;;;6051338;29;20125;-79
2022/10/17 02:49:30;;;;;;;3.23;1.70;;;20.30;55.70;;;;;;6061205;29;20033;-79
2022/10/17 02:52:43;;;;;;;15.55;2.08;;;20.20;55.70;;;;;;6045792;29;20269;-80
2022/10/17 02:55:57;;;;;;;2.60;1.90;;;20.20;55.80;;;;;;6060549;29;20040;-80
2022/10/17 02:59:00;;;;;;;6.00;2.15;;;20.20;55.80;;;;;;6077854;29;20124;-80
2022/10/17 03:02:05;;;;;;;4.75;1.77;;;20.20;55.90;;;;;;6077620;29;20061;-80
2022/10/17 03:05:07;;;;;;;3.10;1.90;;;20.10;55.90;;;;;;6100336;29;20107;-80
2022/10/17 03:08:08;;;;;;;3.58;2.15;;;20.10;56.00;;;;;;6100455;29;20036;-80
2022/10/17 03:11:08;;;;;;;10.80;2.22;;;20.10;55.90;;;;;;6081895;29;20492;-80
2022/10/17 03:14:09;;;;;;;2.78;2.13;;;20.10;56.00;;;;;;6101676;29;20036;-79
2022/10/17 03:17:10;;;;;;;4.85;1.90;;;20.10;56.00;;;;;;6098305;29;20044;-80
2022/10/17 03:20:11;;;;;;;4.53;2.05;;;20.10;55.90;;;;;;6098968;29;20148;-80
2022/10/17 03:23:13;;;;;;;6.55;2.33;;;20.10;55.90;;;;;;6100090;29;20068;-80
2022/10/17 03:26:14;;;;;;;3.40;1.83;;;20.10;56.00;;;;;;6097442;29;20040;-79
2022/10/17 03:29:15;;;;;;;7.25;2.10;;;20.10;56.10;;;;;;6101045;29;20051;-79
2022/10/17 03:32:17;;;;;;;4.35;2.50;;;20.00;56.00;;;;;;6098743;29;20071;-79
2022/10/17 03:35:18;;;;;;;11.52;2.22;;;20.00;56.00;;;;;;6102978;29;20044;-80
2022/10/17 03:38:22;;;;;;;4.00;2.33;;;20.00;56.00;;;;;;6114665;29;20035;-80
2022/10/17 03:41:23;;;;;;;5.78;2.20;;;20.00;56.10;;;;;;6100670;29;20123;-80
2022/10/17 03:44:24;;;;;;;6.60;2.10;;;19.90;56.20;;;;;;6086105;29;20883;-80
2022/10/17 03:47:25;;;;;;;3.55;2.00;;;19.90;56.30;;;;;;6098439;29;20055;-80
2022/10/17 03:50:26;;;;;;;6.13;2.10;;;19.80;56.40;;;;;;6102472;29;20051;-79
2022/10/17 03:53:27;;;;;;;6.32;2.13;;;19.80;56.50;;;;;;6098123;29;20040;-80
2022/10/17 03:56:28;;;;;;;5.97;2.08;;;19.70;56.70;;;;;;6100470;29;20115;-79
2022/10/17 03:59:38;;;;;;;3.78;2.50;;;19.70;56.80;;;;;;6084691;29;20454;-79
2022/10/17 04:02:45;;;;;;;7.95;3.38;;;19.60;56.90;;;;;;6093242;29;20527;-79
2022/10/17 04:05:52;;;;;;;7.88;3.00;;;19.50;56.90;;;;;;6094832;29;20066;-79
2022/10/17 04:08:52;;;;;;;6.20;3.00;;;19.60;57.20;;;;;;6098680;29;20036;-79
2022/10/17 04:12:01;;;;;;;20.83;3.28;;;19.40;57.20;;;;;;6099029;29;20043;-79
2022/10/17 04:15:04;;;;;;;5.22;3.05;;;19.50;57.30;;;;;;6098973;29;20036;-79
2022/10/17 04:18:05;;;;;;;13.70;2.55;;;19.40;57.30;;;;;;6093891;29;20063;-79
2022/10/17 04:21:06;;;;;;;3.85;2.80;;;19.40;57.40;;;;;;6099957;29;20398;-79
2022/10/17 04:24:10;;;;;;;5.32;3.10;;;19.40;57.50;;;;;;6096167;29;20047;-79
2022/10/17 04:27:27;;;;;;;9.18;3.60;;;19.40;57.50;;;;;;6099677;29;20059;-79
2022/10/17 04:30:28;;;;;;;5.63;3.55;;;19.30;57.50;;;;;;6100143;29;20032;-79
2022/10/17 04:33:29;;;;;;;7.15;4.20;;;19.30;57.50;;;;;;6087930;29;20044;-79
2022/10/17 04:36:30;;;;;;;8.88;3.42;;;19.30;57.50;;;;;;6100850;29;20035;-79
2022/10/17 04:39:32;;;;;;;11.07;4.10;;;19.30;57.60;;;;;;6105988;29;20122;-79
2022/10/17 04:42:33;;;;;;;10.70;4.15;;;19.30;57.60;;;;;;6121263;29;20043;-79
2022/10/17 04:45:34;;;;;;;8.45;3.40;;;19.30;57.60;;;;;;6105073;29;20474;-79
2022/10/17 04:48:38;;;;;;;5.38;3.30;;;19.30;57.60;;;;;;6102979;29;20086;-79
2022/10/17 04:51:39;;;;;;;13.10;3.22;;;19.30;57.70;;;;;;6120734;29;20458;-79
2022/10/17 04:55:09;;;;;;;6.75;2.25;;;19.30;57.80;;;;;;6032026;29;20041;-79
2022/10/17 04:58:10;;;;;;;10.48;3.15;;;19.30;58.10;;;;;;6017756;29;20391;-79
2022/10/17 05:01:17;;;;;;;7.68;3.67;;;19.30;58.20;;;;;;6048799;29;20511;-79
2022/10/17 05:04:24;;;;;;;12.70;3.67;;;19.30;58.50;;;;;;6045836;29;20049;-79
2022/10/17 05:07:25;;;;;;;5.18;3.67;;;19.30;58.70;;;;;;6030452;29;20060;-78
2022/10/17 05:10:41;;;;;;;7.95;4.00;;;19.30;58.70;;;;;;6037687;29;20458;-80
2022/10/17 05:13:42;;;;;;;10.10;3.47;;;19.20;58.60;;;;;;6031268;29;20176;-80
2022/10/17 05:16:43;;;;;;;11.05;4.35;;;19.20;58.60;;;;;;6047243;29;20037;-79
2022/10/17 05:19:45;;;;;;;22.70;4.63;;;19.20;58.60;;;;;;6048145;29;20098;-79
2022/10/17 05:22:46;;;;;;;9.10;4.13;;;19.20;58.50;;;;;;6030453;29;20132;-79
2022/10/17 05:25:47;;;;;;;11.45;5.45;;;19.20;58.50;;;;;;6030744;29;20072;-80
2022/10/17 05:28:51;;;;;;;12.75;5.55;;;19.20;58.40;;;;;;6047074;29;20105;-80
2022/10/17 05:31:54;;;;;;;8.32;5.00;;;19.20;58.40;;;;;;6082022;29;20036;-80
2022/10/17 05:34:55;;;;;;;9.20;5.45;;;19.30;58.40;;;;;;6100291;29;20072;-79
2022/10/17 05:37:58;;;;;;;11.27;5.07;;;19.20;59.00;;;;;;6101322;29;20697;-79
2022/10/17 05:41:02;;;;;;;7.05;4.50;;;19.20;58.40;;;;;;6117906;29;20048;-79
2022/10/17 05:44:04;;;;;;;11.77;4.93;;;19.20;58.40;;;;;;6102699;29;20055;-80
2022/10/17 05:47:13;;;;;;;8.35;3.85;;;19.20;58.50;;;;;;6096239;29;20036;-80
2022/10/17 05:50:16;;;;;;;13.45;3.50;;;19.10;58.60;;;;;;6099932;29;20051;-79
2022/10/17 05:53:37;;;;;;;6.60;3.13;;;19.10;58.70;;;;;;6116264;29;20032;-78
2022/10/17 05:56:40;;;;;;;16.48;3.17;;;19.10;58.80;;;;;;6100565;29;20210;-79
2022/10/17 05:59:41;;;;;;;18.58;3.58;;;19.00;58.80;;;;;;6116157;29;20056;-79
2022/10/17 06:02:47;;;;;;;17.00;3.15;;;19.00;58.80;;;;;;6116873;29;20395;-79
2022/10/17 06:05:50;;;;;;;5.28;2.25;;;19.00;58.90;;;;;;6091885;29;20050;-79
2022/10/17 06:08:51;;;;;;;9.55;2.60;;;19.00;58.90;;;;;;6101588;29;20032;-79
2022/10/17 06:11:58;;;;;;;9.32;2.70;;;19.00;58.90;;;;;;6117016;29;20040;-80
2022/10/17 06:15:00;;;;;;;15.52;2.58;;;19.00;58.80;;;;;;6104419;29;20036;-79
2022/10/17 06:18:01;;;;;;;9.35;2.53;;;19.00;58.80;;;;;;6102509;29;20370;-79
2022/10/17 06:21:06;;;;;;;12.30;3.40;;;19.10;58.70;;;;;;6102999;29;20044;-80
2022/10/17 06:24:07;;;;;;;8.98;2.85;;;19.10;58.70;;;;;;6119060;29;20028;-78
2022/10/17 06:27:10;;;;;;;3.40;2.30;;;19.10;58.70;;;;;;6087260;29;20111;-79
2022/10/17 06:30:11;;;;;;;12.30;3.45;;;19.20;58.70;;;;;;6104926;29;20492;-79
2022/10/17 06:33:12;;;;;;;7.28;2.60;;;19.20;58.60;;;;;;6108040;29;20036;-80
2022/10/17 06:36:14;;;;;;;5.93;2.60;;;19.20;58.60;;;;;;6102275;29;20124;-81
2022/10/17 06:39:15;;;;;;;17.08;3.42;;;19.30;58.50;;;;;;6103307;29;20032;-79
2022/10/17 06:42:22;;;;;;;8.80;3.20;;;19.30;58.40;;;;;;6104382;29;20429;-79
2022/10/17 06:45:38;;;;;;;10.00;3.30;;;19.30;58.30;;;;;;6104364;29;20036;-80
2022/10/17 06:49:00;;;;;;;11.50;3.10;;;19.30;58.40;;;;;;6083458;29;20379;-79
2022/10/17 06:52:27;;;;;;;6.43;3.00;;;19.30;58.40;;;;;;6092033;29;20063;-79
2022/10/17 06:56:01;;;;;;;8.60;3.03;;;19.30;58.50;;;;;;6023699;29;20038;-79
2022/10/17 06:59:23;;;;;;;13.00;3.25;;;19.20;58.60;;;;;;6049497;29;20037;-79
2022/10/17 07:02:30;;;;;;;6.17;3.27;;;19.20;58.60;;;;;;6019377;29;20131;-79
2022/10/17 07:05:34;;;;;;;7.75;3.47;;;19.20;58.70;;;;;;6035984;29;20356;-79
2022/10/17 07:08:35;;;;;;;10.38;4.03;;;19.20;58.70;;;;;;6040480;29;20064;-79
2022/10/17 07:11:37;;;;;;;7.45;3.08;;;19.20;58.60;;;;;;6051784;29;20053;-79
2022/10/17 07:14:38;;;;;;;9.65;2.95;;;19.20;58.50;;;;;;6051874;29;20452;-80
2022/10/17 07:17:39;;;;;;;16.02;2.70;;;19.20;58.50;;;;;;6051504;29;20056;-80
2022/10/17 07:20:40;;;;;;;5.07;2.53;;;19.20;58.40;;;;;;6035770;29;20076;-80
2022/10/17 07:23:41;;;;;;;9.68;2.88;;;19.30;58.30;;;;;;6043332;29;20204;-80
2022/10/17 07:26:42;;;;;;;3.58;2.47;;;19.40;58.30;;;;;;6035852;29;20051;-80
2022/10/17 07:29:43;;;;;;;8.10;2.97;;;19.50;58.20;;;;;;6045815;29;20044;-79
2022/10/17 07:32:54;;;;;;;5.50;2.95;;;19.50;58.00;;;;;;6056779;29;20049;-79
2022/10/17 07:35:58;;;;;;;15.18;2.85;;;19.60;57.80;;;;;;6070907;29;20090;-80
2022/10/17 07:38:59;;;;;;;7.35;2.78;;;19.70;57.50;;;;;;6096536;29;20047;-79
2022/10/17 07:42:00;;;;;;;8.02;3.75;;;19.90;57.40;;;;;;6075956;29;20106;-79
2022/10/17 07:45:04;;;;;;;5.32;2.65;;;19.90;57.10;;;;;;6080676;29;20103;-79
2022/10/17 07:48:06;;;;;;;12.18;3.33;;;20.00;56.90;;;;;;6096907;29;20055;-79
2022/10/17 07:51:08;;;;;;;5.95;3.17;;;20.10;56.70;;;;;;6096108;29;20043;-80
2022/10/17 07:54:09;;;;;;;8.85;3.15;;;20.20;56.60;;;;;;6104166;29;20051;-78
2022/10/17 07:57:10;;;;;;;10.23;3.35;;;20.30;56.50;;;;;;6100004;29;20493;-80
2022/10/17 08:00:11;;;;;;;11.85;4.68;;;20.40;56.30;;;;;;6096461;29;20046;-79
2022/10/17 08:03:15;;;;;;;12.18;3.38;;;20.60;56.10;;;;;;6107229;29;20076;-79
2022/10/17 08:06:16;;;;;;;16.00;3.63;;;20.70;55.90;;;;;;6100818;29;20446;-79
2022/10/17 08:09:18;;;;;;;7.57;2.97;;;20.80;55.70;;;;;;6097914;29;20040;-79
2022/10/17 08:12:19;;;;;;;7.80;2.78;;;20.80;55.40;;;;;;6100540;29;20119;-80
2022/10/17 08:15:20;;;;;;;5.70;2.55;;;21.00;55.20;;;;;;6099522;29;20047;-80
2022/10/17 08:18:21;;;;;;;6.05;2.72;;;21.10;55.20;;;;;;6099120;29;20111;-79
2022/10/17 08:21:22;;;;;;;14.10;3.03;;;21.20;55.10;;;;;;6101265;29;20054;-80
2022/10/17 08:24:24;;;;;;;9.30;3.03;;;21.30;54.90;;;;;;6100029;29;20454;-80
2022/10/17 08:27:26;;;;;;;10.48;2.92;;;21.50;54.70;;;;;;6098385;29;20024;-79
2022/10/17 08:30:29;;;;;;;10.00;3.40;;;21.60;54.30;;;;;;6096150;29;20123;-81
2022/10/17 08:33:32;;;;;;;5.15;3.05;;;21.80;54.20;;;;;;6098460;29;20033;-79
2022/10/17 08:36:33;;;;;;;6.97;3.33;;;21.90;53.80;;;;;;6097721;29;20583;-80
2022/10/17 08:39:33;;;;;;;6.72;3.60;;;22.00;53.60;;;;;;6099243;29;20056;-79
2022/10/17 08:42:55;;;;;;;18.30;4.60;;;22.10;53.30;;;;;;6114560;29;20107;-81
2022/10/17 08:46:02;;;;;;;14.88;4.05;;;22.10;53.00;;;;;;6095527;29;20044;-79
2022/10/17 08:49:10;;;;;;;13.18;3.50;;;22.20;52.80;;;;;;6091346;29;20048;-80
2022/10/17 08:52:38;;;;;;;7.72;2.17;;;22.20;52.50;;;;;;6079421;29;20041;-78
2022/10/17 08:55:45;;;;;;;7.75;2.95;;;22.30;52.30;;;;;;6093337;29;20040;-78
2022/10/17 08:58:46;;;;;;;7.35;2.90;;;22.30;51.90;;;;;;6076555;29;20036;-80
2022/10/17 09:01:59;;;;;;;3.13;2.10;;;22.30;51.90;;;;;;6091420;29;20040;-79
2022/10/17 09:05:18;;;;;;;4.47;2.58;;;22.40;52.00;;;;;;6089980;29;20036;-80
2022/10/17 09:08:19;;;;;;;13.25;2.80;;;22.60;51.70;;;;;;6092871;29;20047;-80
2022/10/17 09:11:35;;;;;;;6.20;2.60;;;22.60;51.50;;;;;;6096764;29;20040;-80
2022/10/17 09:14:54;;;;;;;10.27;3.30;;;22.70;51.30;;;;;;6086462;29;20044;-80
2022/10/17 09:18:11;;;;;;;10.63;2.40;;;22.80;51.00;;;;;;6090239;29;20048;-78
2022/10/17 09:21:21;;;;;;;13.02;4.45;;;22.90;50.60;;;;;;6100417;29;20134;-79
2022/10/17 09:24:31;;;;;;;13.30;4.40;;;23.00;50.60;;;;;;6083659;29;20067;-80
2022/10/17 09:27:35;;;;;;;2.47;1.65;;;23.10;50.30;;;;;;6108163;29;20036;-80
2022/10/17 09:30:43;;;;;;;8.02;3.58;;;23.10;50.10;;;;;;6101978;29;20044;-80
2022/10/17 09:33:46;;;;;;;10.35;3.00;;;23.10;50.10;;;;;;6094658;29;20032;-78
2022/10/17 09:36:47;;;;;;;6.15;2.97;;;23.10;50.00;;;;;;6094253;29;20048;-79
2022/10/17 09:39:48;;;;;;;4.80;2.47;;;23.20;50.10;;;;;;6102698;29;20039;-79
2022/10/17 09:42:50;;;;;;;3.72;2.33;;;23.20;50.10;;;;;;6095659;29;20116;-79
2022/10/17 09:46:24;;;;;;;15.00;3.08;;;23.30;50.20;;;;;;6094412;29;20052;-80
2022/10/17 09:49:35;;;;;;;13.57;2.85;;;23.40;50.20;;;;;;6108964;29;20489;-80
2022/10/17 09:52:46;;;;;;;4.47;2.63;;;23.50;50.00;;;;;;6083096;29;20033;-79
2022/10/17 09:56:00;;;;;;;11.48;3.05;;;23.60;50.20;;;;;;6094350;29;20032;-81
2022/10/17 09:59:01;;;;;;;12.77;3.17;;;23.60;50.10;;;;;;6093545;29;20050;-81
2022/10/17 10:02:19;;;;;;;9.60;2.95;;;23.70;50.00;;;;;;6097563;29;20044;-82
2022/10/17 10:05:20;;;;;;;13.00;3.42;;;23.80;50.20;;;;;;6099465;29;20953;-80
2022/10/17 10:08:25;;;;;;;9.77;3.10;;;23.90;50.10;;;;;;6098650;29;20036;-79
2022/10/17 10:11:50;;;;;;;6.35;3.08;;;24.10;49.90;;;;;;6107408;29;20446;-81
2022/10/17 10:14:51;;;;;;;12.93;2.65;;;24.30;49.50;;;;;;6110228;29;20067;-80
2022/10/17 10:17:52;;;;;;;15.45;3.28;;;24.50;48.90;;;;;;6089685;29;20047;-80
2022/10/17 10:21:04;;;;;;;9.63;2.75;;;24.70;48.70;;;;;;6095226;29;20410;-79
2022/10/17 10:24:08;;;;;;;4.47;2.83;;;24.90;48.30;;;;;;6096164;29;20127;-81
2022/10/17 10:27:15;;;;;;;6.70;3.55;;;25.00;47.90;;;;;;6093401;29;20055;-80
2022/10/17 10:30:18;;;;;;;6.97;2.90;;;25.20;47.80;;;;;;6099055;29;20047;-80
2022/10/17 10:33:22;;;;;;;8.50;3.30;;;25.30;47.70;;;;;;6108329;29;20048;-80
2022/10/17 10:36:23;;;;;;;7.72;2.67;;;25.40;47.70;;;;;;6088418;29;20036;-82
2022/10/17 10:39:38;;;;;;;20.10;3.40;;;25.50;47.80;;;;;;6105688;29;20040;-80
2022/10/17 10:42:40;;;;;;;10.07;2.88;;;25.60;47.80;;;;;;6087820;29;20485;-80
2022/10/17 10:45:43;;;;;;;13.63;3.83;;;25.70;47.60;;;;;;6087947;29;20060;-80
2022/10/17 10:48:59;;;;;;;13.88;2.90;;;25.90;47.70;;;;;;6096550;29;20040;-80
2022/10/17 10:52:02;;;;;;;11.05;2.25;;;26.00;47.40;;;;;;6089627;29;20039;-80
2022/10/17 10:55:29;;;;;;;5.90;2.20;;;26.20;47.10;;;;;;6088000;29;20055;-80
2022/10/17 10:58:54;;;;;;;4.15;2.13;;;26.50;46.90;;;;;;6042877;29;20037;-80
2022/10/17 11:02:15;;;;;;;11.75;3.05;;;26.80;46.20;;;;;;6035268;29;20068;-80
2022/10/17 11:05:43;;;;;;;7.03;2.20;;;27.10;45.70;;;;;;6028773;29;20379;-80
2022/10/17 11:08:49;;;;;;;5.57;2.05;;;27.50;45.00;;;;;;6026612;29;20049;-80
2022/10/17 11:12:10;;;;;;;7.95;2.60;;;27.90;44.30;;;;;;6044250;29;20105;-81
2022/10/17 11:15:24;;;;;;;8.65;2.50;;;28.30;43.90;;;;;;6030238;29;20474;-82
2022/10/17 11:18:37;;;;;;;3.45;2.30;;;28.80;43.30;;;;;;6029520;29;20072;-82
2022/10/17 11:21:59;;;;;;;3.08;1.77;;;29.00;42.50;;;;;;6031953;29;20134;-81
2022/10/17 11:25:13;;;;;;;12.10;2.40;;;29.40;42.10;;;;;;6023779;29;20044;-81
2022/10/17 11:28:21;;;;;;;5.35;2.50;;;29.80;41.60;;;;;;6038744;29;20037;-81
2022/10/17 11:31:29;;;;;;;4.85;2.13;;;30.30;39.80;;;;;;6031393;29;20052;-80
2022/10/17 11:34:36;;;;;;;3.67;2.05;;;30.70;39.10;;;;;;6046603;29;20181;-81
2022/10/17 11:37:43;;;;;;;13.98;2.47;;;31.10;38.20;;;;;;6099808;29;20649;-80
2022/10/17 11:40:50;;;;;;;5.03;2.58;;;31.30;37.20;;;;;;6093031;29;20044;-81
2022/10/17 11:44:04;;;;;;;5.87;2.37;;;31.60;36.60;;;;;;6101299;29;20074;-81
2022/10/17 11:47:20;;;;;;;12.18;2.17;;;31.90;35.60;;;;;;6084329;29;20103;-81
2022/10/17 11:50:24;;;;;;;7.95;2.00;;;32.20;34.90;;;;;;6093848;29;20489;-80
2022/10/17 11:53:30;;;;;;;13.30;2.05;;;32.60;34.20;;;;;;6101259;29;20492;-81
2022/10/17 11:56:41;;;;;;;8.85;2.38;;;32.90;33.10;;;;;;6064669;29;20144;-81
2022/10/17 11:59:57;;;;;;;4.55;1.80;;;33.30;32.70;;;;;;6104949;29;20670;-81
2022/10/17 12:03:16;;;;;;;10.40;2.00;;;33.60;32.00;;;;;;6084360;29;20469;-82
2022/10/17 12:06:31;;;;;;;3.38;1.75;;;33.20;32.20;;;;;;6099215;29;20068;-81
2022/10/17 12:10:00;;;;;;;5.50;2.20;;;32.60;33.20;;;;;;6102514;29;20099;-82
2022/10/17 12:13:31;;;;;;;4.38;1.88;;;32.00;34.30;;;;;;6087342;29;20032;-81
2022/10/17 12:16:37;;;;;;;3.53;1.77;;;31.80;34.90;;;;;;6080701;29;20032;-81
2022/10/17 12:19:38;;;;;;;4.13;1.90;;;32.10;34.60;;;;;;6092609;29;20048;-81
2022/10/17 12:22:46;;;;;;;4.30;1.63;;;32.80;33.70;;;;;;6091014;29;20055;-81
2022/10/17 12:25:47;;;;;;;;;;;33.50;32.70;;;;;;6083997;29;20092;-81
2022/10/17 12:28:48;;;;;;;11.98;1.77;;;34.00;32.00;;;;;;6099166;29;20309;-81
2022/10/17 12:31:49;;;;;;;3.50;1.80;;;34.20;31.30;;;;;;6092255;29;20075;-81
2022/10/17 12:34:56;;;;;;;4.78;1.70;;;34.30;31.10;;;;;;6074271;29;20032;-81
2022/10/17 12:38:02;;;;;;;6.10;1.77;;;33.80;31.50;;;;;;6089215;29;20049;-81
2022/10/17 12:41:05;;;;;;;12.02;1.80;;;33.30;32.30;;;;;;6086157;29;20051;-80
2022/10/17 12:44:12;;;;;;;11.95;2.17;;;32.70;33.00;;;;;;6098322;29;20044;-81
2022/10/17 12:47:23;;;;;;;8.63;1.97;;;32.20;33.60;;;;;;6103681;29;20414;-81
2022/10/17 12:50:59;;;;;;;10.05;2.13;;;31.80;34.10;;;;;;6095288;29;20040;-81
2022/10/17 12:54:13;;;;;;;6.05;1.65;;;31.20;34.70;;;;;;5995765;29;20037;-82
2022/10/17 12:57:53;;;;;;;6.10;1.75;;;30.90;35.20;;;;;;6000760;29;20042;-81
2022/10/17 13:00:57;;;;;;;5.05;1.70;;;30.50;35.50;;;;;;5960064;29;20437;-81
2022/10/17 13:04:04;;;;;;;5.45;1.85;;;30.20;35.90;;;;;;5944125;29;20075;-81
2022/10/17 13:07:21;;;;;;;4.35;1.90;;;29.80;36.20;;;;;;5950178;29;20086;-80
2022/10/17 13:10:29;;;;;;;6.22;1.80;;;29.50;36.60;;;;;;5932787;29;20038;-79
2022/10/17 13:13:51;;;;;;;8.30;1.67;;;29.30;37.00;;;;;;5950605;29;20134;-81
2022/10/17 13:17:04;;;;;;;11.75;2.10;;;29.00;37.40;;;;;;5943315;29;20129;-79
2022/10/17 13:20:22;;;;;;;6.25;1.40;;;28.90;37.80;;;;;;5949690;29;20081;-80
2022/10/17 13:23:32;;;;;;;4.43;1.80;;;28.70;38.00;;;;;;5960746;29;20047;-80
2022/10/17 13:26:32;;;;;;;10.80;2.25;;;28.60;38.10;;;;;;5950968;29;20280;-79
2022/10/17 13:29:34;;;;;;;7.63;2.20;;;28.50;38.20;;;;;;5965285;29;20556;-79
2022/10/17 13:32:38;;;;;;;3.40;1.85;;;28.40;38.40;;;;;;5978410;29;20030;-81
2022/10/17 13:35:39;;;;;;;2.53;1.73;;;28.40;38.60;;;;;;6003845;29;20472;-80
2022/10/17 13:38:41;;;;;;;6.72;1.98;;;28.30;38.70;;;;;;6095640;29;20037;-81
2022/10/17 13:41:42;;;;;;;4.47;1.70;;;28.20;38.90;;;;;;6100061;29;20473;-81
2022/10/17 13:44:43;;;;;;;5.47;1.55;;;28.10;39.10;;;;;;6097709;29;20474;-80
2022/10/17 13:47:45;;;;;;;6.68;1.67;;;28.10;39.20;;;;;;6096310;29;20076;-81
2022/10/17 13:50:49;;;;;;;3.97;2.00;;;28.10;39.20;;;;;;6082549;29;20119;-81
2022/10/17 13:53:50;;;;;;;8.25;2.00;;;28.10;39.20;;;;;;6096797;29;20068;-79
2022/10/17 13:56:56;;;;;;;4.63;1.90;;;28.10;39.20;;;;;;6083980;29;20092;-82
2022/10/17 14:00:04;;;;;;;4.90;1.95;;;28.10;39.40;;;;;;6104463;29;20131;-81
2022/10/17 14:03:13;;;;;;;5.78;1.80;;;28.10;39.70;;;;;;6094403;29;20103;-80
2022/10/17 14:06:19;;;;;;;7.70;1.85;;;28.00;39.90;;;;;;6091878;29;20486;-81
2022/10/17 14:09:22;;;;;;;7.00;1.85;;;28.00;40.10;;;;;;6107522;29;20028;-80
2022/10/17 14:12:23;;;;;;;5.72;1.88;;;27.90;40.20;;;;;;6110843;29;20529;-80
2022/10/17 14:15:27;;;;;;;9.93;2.35;;;27.80;40.40;;;;;;6108057;29;20037;-80
2022/10/17 14:18:33;;;;;;;7.90;2.20;;;27.80;40.70;;;;;;6090485;29;20044;-80
2022/10/17 14:21:34;;;;;;;4.80;1.92;;;27.70;40.80;;;;;;6096159;29;20045;-80
2022/10/17 14:24:37;;;;;;;6.07;2.40;;;27.70;41.00;;;;;;6091103;29;20512;-80
2022/10/17 14:27:56;;;;;;;4.97;2.10;;;27.70;41.20;;;;;;6094015;29;20044;-80
2022/10/17 14:31:24;;;;;;;10.95;1.70;;;27.60;41.40;;;;;;6089515;29;20739;-80
2022/10/17 14:34:33;;;;;;;7.15;2.00;;;27.60;41.40;;;;;;6091928;29;20131;-80
2022/10/17 14:37:45;;;;;;;4.90;1.98;;;27.50;41.40;;;;;;6098293;29;20063;-80
2022/10/17 14:41:30;;;;;;;4.32;2.30;;;27.50;41.50;;;;;;6090210;29;20442;-80
2022/10/17 14:44:34;;;;;;;4.68;2.20;;;27.50;41.80;;;;;;6028952;29;20398;-80
2022/10/17 14:47:35;;;;;;;9.48;2.67;;;27.50;41.80;;;;;;6033652;29;20169;-80
2022/10/17 14:50:36;;;;;;;8.55;2.28;;;27.50;41.80;;;;;;6038362;29;20122;-80
2022/10/17 14:53:38;;;;;;;5.95;2.33;;;27.50;42.10;;;;;;6039425;29;20500;-80
2022/10/17 14:56:41;;;;;;;11.68;2.30;;;27.40;42.10;;;;;;6032039;29;20096;-80
2022/10/17 14:59:42;;;;;;;6.60;2.40;;;27.40;42.40;;;;;;6041353;29;20046;-80
2022/10/17 15:02:44;;;;;;;3.88;2.25;;;27.30;42.50;;;;;;6039045;29;20043;-80
2022/10/17 15:05:47;;;;;;;6.60;2.58;;;27.30;42.70;;;;;;6034118;29;20399;-80
2022/10/17 15:08:48;;;;;;;7.55;1.80;;;27.30;42.90;;;;;;6039104;29;20550;-80
2022/10/17 15:11:49;;;;;;;5.03;2.05;;;27.20;43.00;;;;;;6021167;29;20049;-80
2022/10/17 15:14:51;;;;;;;14.25;2.13;;;27.20;43.10;;;;;;6033172;29;20073;-80
2022/10/17 15:17:52;;;;;;;5.53;1.98;;;27.10;43.20;;;;;;6055483;29;20051;-80
2022/10/17 15:20:56;;;;;;;3.55;1.80;;;27.10;43.30;;;;;;6100729;29;20056;-80
2022/10/17 15:23:57;;;;;;;4.55;2.33;;;27.00;43.40;;;;;;6093079;29;20056;-81
2022/10/17 15:26:58;;;;;;;9.13;2.63;;;27.00;43.60;;;;;;6078430;29;20047;-80
2022/10/17 15:29:59;;;;;;;6.95;2.72;;;27.00;43.80;;;;;;6102760;29;20036;-79
2022/10/17 15:33:00;;;;;;;4.05;2.20;;;26.90;43.90;;;;;;6083112;29;20413;-80
2022/10/17 15:36:01;;;;;;;4.65;2.03;;;26.90;44.00;;;;;;6098465;29;20032;-80
2022/10/17 15:39:03;;;;;;;2.65;1.80;;;26.80;44.10;;;;;;6092767;29;20039;-80
2022/10/17 15:42:09;;;;;;;2.80;2.13;;;26.80;44.20;;;;;;6080995;29;20381;-80
2022/10/17 15:45:15;;;;;;;2.83;2.15;;;26.70;44.40;;;;;;6089914;29;20057;-80
2022/10/17 15:48:22;;;;;;;3.42;1.92;;;26.70;44.60;;;;;;6092909;29;20160;-80
2022/10/17 15:51:23;;;;;;;7.47;2.33;;;26.60;44.70;;;;;;6083846;29;20037;-81
2022/10/17 15:54:24;;;;;;;7.90;2.60;;;26.60;44.80;;;;;;6090514;29;20433;-80
2022/10/17 15:57:30;;;;;;;11.95;2.45;;;26.50;44.90;;;;;;6097366;29;20048;-79
2022/10/17 16:00:31;;;;;;;2.92;2.33;;;26.40;45.10;;;;;;6096952;29;20040;-80
2022/10/17 16:03:32;;;;;;;7.03;2.20;;;26.40;45.30;;;;;;6097464;29;20043;-79
2022/10/17 16:06:33;;;;;;;6.65;2.47;;;26.40;45.40;;;;;;6087157;29;20032;-80
2022/10/17 16:09:36;;;;;;;7.32;2.17;;;26.30;45.50;;;;;;6100584;29;20040;-80
2022/10/17 16:12:40;;;;;;;9.55;2.42;;;26.20;45.60;;;;;;6097797;29;20056;-80